sensor_id;sensor_type;location;lat;lon;timestamp;P1;durP1;ratioP1;P2;durP2;ratioP2
44169;SDS011;29836;52.286;9.576;2023-03-23T00:02:24;4.43;;;1.98;;
44169;SDS011;29836;52.286;9.576;2023-03-23T00:04:51;4.25;;;1.80;;
44169;SDS011;29836;52.286;9.576;2023-03-23T00:07:18;6.25;;;2.55;;
44169;SDS011;29836;52.286;9.576;2023-03-23T00:09:46;6.05;;;2.10;;
44169;SDS011;29836;52.286;9.576;2023-03-23T00:12:22;4.25;;;1.98;;
44169;SDS011;29836;52.286;9.576;2023-03-23T00:14:59;4.38;;;1.55;;
44169;SDS011;29836;52.286;9.576;2023-03-23T00:17:26;3.35;;;1.90;;
44169;SDS011;29836;52.286;9.576;2023-03-23T00:19:52;6.28;;;2.58;;
44169;SDS011;29836;52.286;9.576;2023-03-23T00:22:18;3.78;;;1.85;;
44169;SDS011;29836;52.286;9.576;2023-03-23T00:24:46;3.97;;;2.03;;
44169;SDS011;29836;52.286;9.576;2023-03-23T00:27:15;5.28;;;1.90;;
44169;SDS011;29836;52.286;9.576;2023-03-23T00:29:41;7.97;;;1.58;;
44169;SDS011;29836;52.286;9.576;2023-03-23T00:32:07;3.10;;;1.77;;
44169;SDS011;29836;52.286;9.576;2023-03-23T00:34:37;4.90;;;2.03;;
44169;SDS011;29836;52.286;9.576;2023-03-23T00:37:05;2.65;;;1.42;;
44169;SDS011;29836;52.286;9.576;2023-03-23T00:39:30;3.00;;;1.58;;
44169;SDS011;29836;52.286;9.576;2023-03-23T00:41:56;8.10;;;1.88;;
44169;SDS011;29836;52.286;9.576;2023-03-23T00:44:29;7.00;;;1.80;;
44169;SDS011;29836;52.286;9.576;2023-03-23T00:46:56;6.18;;;1.90;;
44169;SDS011;29836;52.286;9.576;2023-03-23T00:49:24;3.95;;;2.00;;
44169;SDS011;29836;52.286;9.576;2023-03-23T00:51:54;5.13;;;2.30;;
44169;SDS011;29836;52.286;9.576;2023-03-23T00:54:21;4.13;;;2.05;;
44169;SDS011;29836;52.286;9.576;2023-03-23T00:56:48;2.95;;;1.88;;
44169;SDS011;29836;52.286;9.576;2023-03-23T00:59:14;5.35;;;1.85;;
44169;SDS011;29836;52.286;9.576;2023-03-23T01:01:39;4.25;;;1.92;;
44169;SDS011;29836;52.286;9.576;2023-03-23T01:04:06;4.30;;;1.90;;
44169;SDS011;29836;52.286;9.576;2023-03-23T01:06:33;7.70;;;2.10;;
44169;SDS011;29836;52.286;9.576;2023-03-23T01:09:00;3.88;;;1.80;;
44169;SDS011;29836;52.286;9.576;2023-03-23T01:11:28;3.75;;;2.03;;
44169;SDS011;29836;52.286;9.576;2023-03-23T01:13:53;2.40;;;1.55;;
44169;SDS011;29836;52.286;9.576;2023-03-23T01:16:19;2.53;;;1.60;;
44169;SDS011;29836;52.286;9.576;2023-03-23T01:18:45;4.90;;;1.90;;
44169;SDS011;29836;52.286;9.576;2023-03-23T01:21:12;4.57;;;1.75;;
44169;SDS011;29836;52.286;9.576;2023-03-23T01:23:40;5.28;;;2.08;;
44169;SDS011;29836;52.286;9.576;2023-03-23T01:26:06;7.30;;;2.33;;
44169;SDS011;29836;52.286;9.576;2023-03-23T01:28:34;2.90;;;1.80;;
44169;SDS011;29836;52.286;9.576;2023-03-23T01:31:01;5.68;;;2.42;;
44169;SDS011;29836;52.286;9.576;2023-03-23T01:33:28;5.35;;;2.50;;
44169;SDS011;29836;52.286;9.576;2023-03-23T01:35:54;3.63;;;2.08;;
44169;SDS011;29836;52.286;9.576;2023-03-23T01:38:20;5.18;;;1.88;;
44169;SDS011;29836;52.286;9.576;2023-03-23T01:40:46;8.57;;;2.22;;
44169;SDS011;29836;52.286;9.576;2023-03-23T01:43:13;4.72;;;2.10;;
44169;SDS011;29836;52.286;9.576;2023-03-23T01:45:39;5.78;;;2.05;;
44169;SDS011;29836;52.286;9.576;2023-03-23T01:50:36;3.72;;;2.03;;
44169;SDS011;29836;52.286;9.576;2023-03-23T01:53:06;4.05;;;2.05;;
44169;SDS011;29836;52.286;9.576;2023-03-23T01:55:33;5.10;;;2.10;;
44169;SDS011;29836;52.286;9.576;2023-03-23T01:58:02;5.60;;;1.83;;
44169;SDS011;29836;52.286;9.576;2023-03-23T02:00:28;3.97;;;1.80;;
44169;SDS011;29836;52.286;9.576;2023-03-23T02:02:55;3.63;;;1.77;;
44169;SDS011;29836;52.286;9.576;2023-03-23T02:05:26;6.13;;;2.00;;
44169;SDS011;29836;52.286;9.576;2023-03-23T02:07:56;4.57;;;1.65;;
44169;SDS011;29836;52.286;9.576;2023-03-23T02:10:27;3.58;;;1.70;;
44169;SDS011;29836;52.286;9.576;2023-03-23T02:12:57;3.85;;;1.48;;
44169;SDS011;29836;52.286;9.576;2023-03-23T02:15:26;3.20;;;1.60;;
44169;SDS011;29836;52.286;9.576;2023-03-23T02:17:59;3.75;;;1.75;;
44169;SDS011;29836;52.286;9.576;2023-03-23T02:23:51;7.18;;;1.90;;
44169;SDS011;29836;52.286;9.576;2023-03-23T02:26:27;4.10;;;1.73;;
44169;SDS011;29836;52.286;9.576;2023-03-23T02:29:21;3.25;;;1.48;;
44169;SDS011;29836;52.286;9.576;2023-03-23T02:32:02;3.78;;;1.70;;
44169;SDS011;29836;52.286;9.576;2023-03-23T02:34:45;4.40;;;1.85;;
44169;SDS011;29836;52.286;9.576;2023-03-23T02:37:21;3.70;;;1.77;;
44169;SDS011;29836;52.286;9.576;2023-03-23T02:40:19;2.78;;;1.70;;
44169;SDS011;29836;52.286;9.576;2023-03-23T02:42:50;4.03;;;2.00;;
44169;SDS011;29836;52.286;9.576;2023-03-23T02:45:19;3.22;;;1.80;;
44169;SDS011;29836;52.286;9.576;2023-03-23T02:47:46;3.00;;;1.60;;
44169;SDS011;29836;52.286;9.576;2023-03-23T02:50:16;2.25;;;1.45;;
44169;SDS011;29836;52.286;9.576;2023-03-23T02:52:44;5.28;;;2.20;;
44169;SDS011;29836;52.286;9.576;2023-03-23T02:55:11;4.15;;;1.60;;
44169;SDS011;29836;52.286;9.576;2023-03-23T02:57:39;3.55;;;2.00;;
44169;SDS011;29836;52.286;9.576;2023-03-23T03:00:06;3.58;;;1.55;;
44169;SDS011;29836;52.286;9.576;2023-03-23T03:02:39;4.43;;;1.83;;
44169;SDS011;29836;52.286;9.576;2023-03-23T03:08:07;4.53;;;1.80;;
44169;SDS011;29836;52.286;9.576;2023-03-23T03:10:52;6.28;;;2.17;;
44169;SDS011;29836;52.286;9.576;2023-03-23T03:16:53;5.60;;;1.92;;
44169;SDS011;29836;52.286;9.576;2023-03-23T03:21:40;2.10;;;1.60;;
44169;SDS011;29836;52.286;9.576;2023-03-23T03:24:08;3.20;;;1.75;;
44169;SDS011;29836;52.286;9.576;2023-03-23T03:26:36;4.35;;;1.75;;
44169;SDS011;29836;52.286;9.576;2023-03-23T03:29:05;4.18;;;1.75;;
44169;SDS011;29836;52.286;9.576;2023-03-23T03:31:32;6.05;;;2.00;;
44169;SDS011;29836;52.286;9.576;2023-03-23T03:34:02;6.20;;;2.05;;
44169;SDS011;29836;52.286;9.576;2023-03-23T03:36:29;4.45;;;1.92;;
44169;SDS011;29836;52.286;9.576;2023-03-23T03:38:59;4.03;;;2.10;;
44169;SDS011;29836;52.286;9.576;2023-03-23T03:41:31;3.45;;;1.95;;
44169;SDS011;29836;52.286;9.576;2023-03-23T03:43:57;3.70;;;1.85;;
44169;SDS011;29836;52.286;9.576;2023-03-23T03:46:22;3.25;;;1.63;;
44169;SDS011;29836;52.286;9.576;2023-03-23T03:48:51;3.95;;;1.73;;
44169;SDS011;29836;52.286;9.576;2023-03-23T03:51:17;2.33;;;1.45;;
44169;SDS011;29836;52.286;9.576;2023-03-23T03:53:43;1.67;;;1.02;;
44169;SDS011;29836;52.286;9.576;2023-03-23T03:56:08;4.05;;;1.67;;
44169;SDS011;29836;52.286;9.576;2023-03-23T03:58:34;3.28;;;1.25;;
44169;SDS011;29836;52.286;9.576;2023-03-23T04:01:01;2.38;;;1.40;;
44169;SDS011;29836;52.286;9.576;2023-03-23T04:03:27;2.58;;;1.50;;
44169;SDS011;29836;52.286;9.576;2023-03-23T04:05:54;3.38;;;1.58;;
44169;SDS011;29836;52.286;9.576;2023-03-23T04:08:21;4.95;;;1.42;;
44169;SDS011;29836;52.286;9.576;2023-03-23T04:10:49;3.08;;;1.40;;
44169;SDS011;29836;52.286;9.576;2023-03-23T04:13:16;4.72;;;1.90;;
44169;SDS011;29836;52.286;9.576;2023-03-23T04:15:43;2.40;;;1.42;;
44169;SDS011;29836;52.286;9.576;2023-03-23T04:18:09;1.88;;;1.17;;
44169;SDS011;29836;52.286;9.576;2023-03-23T04:20:34;4.68;;;1.30;;
44169;SDS011;29836;52.286;9.576;2023-03-23T04:23:00;2.35;;;1.30;;
44169;SDS011;29836;52.286;9.576;2023-03-23T04:25:27;3.83;;;1.33;;
44169;SDS011;29836;52.286;9.576;2023-03-23T04:27:53;4.15;;;1.70;;
44169;SDS011;29836;52.286;9.576;2023-03-23T04:30:22;1.58;;;1.10;;
44169;SDS011;29836;52.286;9.576;2023-03-23T04:32:50;4.80;;;1.30;;
44169;SDS011;29836;52.286;9.576;2023-03-23T04:35:17;1.95;;;1.30;;
44169;SDS011;29836;52.286;9.576;2023-03-23T04:37:44;3.00;;;1.40;;
44169;SDS011;29836;52.286;9.576;2023-03-23T04:40:10;4.95;;;1.77;;
44169;SDS011;29836;52.286;9.576;2023-03-23T04:42:38;2.42;;;1.10;;
44169;SDS011;29836;52.286;9.576;2023-03-23T04:45:05;2.13;;;1.40;;
44169;SDS011;29836;52.286;9.576;2023-03-23T04:47:33;3.03;;;1.33;;
44169;SDS011;29836;52.286;9.576;2023-03-23T04:50:06;2.28;;;1.17;;
44169;SDS011;29836;52.286;9.576;2023-03-23T04:52:36;1.27;;;0.90;;
44169;SDS011;29836;52.286;9.576;2023-03-23T04:55:03;1.63;;;0.98;;
44169;SDS011;29836;52.286;9.576;2023-03-23T04:57:30;3.65;;;1.30;;
44169;SDS011;29836;52.286;9.576;2023-03-23T04:59:56;1.85;;;1.17;;
44169;SDS011;29836;52.286;9.576;2023-03-23T05:02:22;4.43;;;1.30;;
44169;SDS011;29836;52.286;9.576;2023-03-23T05:04:48;1.52;;;0.98;;
44169;SDS011;29836;52.286;9.576;2023-03-23T05:07:14;2.25;;;1.13;;
44169;SDS011;29836;52.286;9.576;2023-03-23T05:09:40;1.88;;;0.93;;
44169;SDS011;29836;52.286;9.576;2023-03-23T05:12:06;2.10;;;1.27;;
44169;SDS011;29836;52.286;9.576;2023-03-23T05:14:34;3.03;;;1.20;;
44169;SDS011;29836;52.286;9.576;2023-03-23T05:17:01;2.50;;;1.55;;
44169;SDS011;29836;52.286;9.576;2023-03-23T05:19:27;1.38;;;0.82;;
44169;SDS011;29836;52.286;9.576;2023-03-23T05:21:53;1.95;;;1.10;;
44169;SDS011;29836;52.286;9.576;2023-03-23T05:24:19;2.15;;;1.17;;
44169;SDS011;29836;52.286;9.576;2023-03-23T05:26:44;0.80;;;0.70;;
44169;SDS011;29836;52.286;9.576;2023-03-23T05:29:13;2.28;;;0.90;;
44169;SDS011;29836;52.286;9.576;2023-03-23T05:31:40;3.13;;;1.25;;
44169;SDS011;29836;52.286;9.576;2023-03-23T05:34:06;3.38;;;1.08;;
44169;SDS011;29836;52.286;9.576;2023-03-23T05:36:31;2.45;;;0.90;;
44169;SDS011;29836;52.286;9.576;2023-03-23T05:38:57;1.70;;;1.05;;
44169;SDS011;29836;52.286;9.576;2023-03-23T05:41:25;2.13;;;1.17;;
44169;SDS011;29836;52.286;9.576;2023-03-23T05:43:50;1.40;;;0.90;;
44169;SDS011;29836;52.286;9.576;2023-03-23T05:46:16;2.35;;;1.00;;
44169;SDS011;29836;52.286;9.576;2023-03-23T05:48:42;4.10;;;1.15;;
44169;SDS011;29836;52.286;9.576;2023-03-23T05:51:08;1.25;;;0.88;;
44169;SDS011;29836;52.286;9.576;2023-03-23T05:53:34;1.25;;;1.02;;
44169;SDS011;29836;52.286;9.576;2023-03-23T05:56:00;1.33;;;0.80;;
44169;SDS011;29836;52.286;9.576;2023-03-23T05:58:26;2.28;;;0.95;;
44169;SDS011;29836;52.286;9.576;2023-03-23T06:00:52;1.48;;;0.88;;
44169;SDS011;29836;52.286;9.576;2023-03-23T06:03:18;1.17;;;0.80;;
44169;SDS011;29836;52.286;9.576;2023-03-23T06:05:44;1.80;;;1.10;;
44169;SDS011;29836;52.286;9.576;2023-03-23T06:08:10;2.75;;;0.90;;
44169;SDS011;29836;52.286;9.576;2023-03-23T06:10:36;2.45;;;1.13;;
44169;SDS011;29836;52.286;9.576;2023-03-23T06:13:02;1.10;;;0.80;;
44169;SDS011;29836;52.286;9.576;2023-03-23T06:15:28;1.77;;;1.00;;
44169;SDS011;29836;52.286;9.576;2023-03-23T06:17:58;1.85;;;1.20;;
44169;SDS011;29836;52.286;9.576;2023-03-23T06:20:24;1.80;;;0.75;;
44169;SDS011;29836;52.286;9.576;2023-03-23T06:22:50;2.10;;;1.00;;
44169;SDS011;29836;52.286;9.576;2023-03-23T06:25:17;1.73;;;1.10;;
44169;SDS011;29836;52.286;9.576;2023-03-23T06:27:43;2.60;;;1.20;;
44169;SDS011;29836;52.286;9.576;2023-03-23T06:30:10;1.55;;;1.00;;
44169;SDS011;29836;52.286;9.576;2023-03-23T06:32:36;1.23;;;0.80;;
44169;SDS011;29836;52.286;9.576;2023-03-23T06:35:03;1.23;;;0.93;;
44169;SDS011;29836;52.286;9.576;2023-03-23T06:37:29;1.23;;;0.90;;
44169;SDS011;29836;52.286;9.576;2023-03-23T06:39:55;1.33;;;0.80;;
44169;SDS011;29836;52.286;9.576;2023-03-23T06:42:21;1.73;;;1.00;;
44169;SDS011;29836;52.286;9.576;2023-03-23T06:44:49;1.45;;;0.93;;
44169;SDS011;29836;52.286;9.576;2023-03-23T06:47:15;3.42;;;1.10;;
44169;SDS011;29836;52.286;9.576;2023-03-23T06:49:40;1.67;;;0.80;;
44169;SDS011;29836;52.286;9.576;2023-03-23T06:52:06;0.77;;;0.75;;
44169;SDS011;29836;52.286;9.576;2023-03-23T06:54:32;2.90;;;0.90;;
44169;SDS011;29836;52.286;9.576;2023-03-23T06:56:57;1.98;;;1.10;;
44169;SDS011;29836;52.286;9.576;2023-03-23T06:59:23;1.70;;;0.93;;
44169;SDS011;29836;52.286;9.576;2023-03-23T07:01:48;1.08;;;0.90;;
44169;SDS011;29836;52.286;9.576;2023-03-23T07:04:14;2.05;;;0.80;;
44169;SDS011;29836;52.286;9.576;2023-03-23T07:06:41;0.88;;;0.70;;
44169;SDS011;29836;52.286;9.576;2023-03-23T07:09:06;1.40;;;0.80;;
44169;SDS011;29836;52.286;9.576;2023-03-23T07:11:32;1.08;;;0.98;;
44169;SDS011;29836;52.286;9.576;2023-03-23T07:13:57;2.97;;;0.95;;
44169;SDS011;29836;52.286;9.576;2023-03-23T07:16:23;1.33;;;0.80;;
44169;SDS011;29836;52.286;9.576;2023-03-23T07:18:48;1.73;;;1.20;;
44169;SDS011;29836;52.286;9.576;2023-03-23T07:21:14;1.63;;;1.00;;
44169;SDS011;29836;52.286;9.576;2023-03-23T07:23:40;1.65;;;0.80;;
44169;SDS011;29836;52.286;9.576;2023-03-23T07:26:06;2.80;;;0.82;;
44169;SDS011;29836;52.286;9.576;2023-03-23T07:28:32;2.40;;;1.08;;
44169;SDS011;29836;52.286;9.576;2023-03-23T07:30:58;3.33;;;0.93;;
44169;SDS011;29836;52.286;9.576;2023-03-23T07:33:23;1.45;;;1.10;;
44169;SDS011;29836;52.286;9.576;2023-03-23T07:35:49;1.95;;;1.20;;
44169;SDS011;29836;52.286;9.576;2023-03-23T07:38:15;2.40;;;0.95;;
44169;SDS011;29836;52.286;9.576;2023-03-23T07:40:41;3.05;;;1.02;;
44169;SDS011;29836;52.286;9.576;2023-03-23T07:43:06;2.13;;;1.00;;
44169;SDS011;29836;52.286;9.576;2023-03-23T07:45:32;3.33;;;0.90;;
44169;SDS011;29836;52.286;9.576;2023-03-23T07:47:58;4.05;;;1.08;;
44169;SDS011;29836;52.286;9.576;2023-03-23T07:50:25;3.20;;;1.10;;
44169;SDS011;29836;52.286;9.576;2023-03-23T07:52:53;1.98;;;1.08;;
44169;SDS011;29836;52.286;9.576;2023-03-23T07:55:20;2.80;;;1.30;;
44169;SDS011;29836;52.286;9.576;2023-03-23T07:57:46;1.60;;;0.88;;
44169;SDS011;29836;52.286;9.576;2023-03-23T08:00:14;1.85;;;1.15;;
44169;SDS011;29836;52.286;9.576;2023-03-23T08:02:44;4.18;;;1.05;;
44169;SDS011;29836;52.286;9.576;2023-03-23T08:05:10;1.25;;;0.82;;
44169;SDS011;29836;52.286;9.576;2023-03-23T08:07:38;2.75;;;1.30;;
44169;SDS011;29836;52.286;9.576;2023-03-23T08:10:05;2.53;;;1.33;;
44169;SDS011;29836;52.286;9.576;2023-03-23T08:12:34;1.42;;;1.00;;
44169;SDS011;29836;52.286;9.576;2023-03-23T08:15:00;1.65;;;0.90;;
44169;SDS011;29836;52.286;9.576;2023-03-23T08:17:26;3.03;;;1.30;;
44169;SDS011;29836;52.286;9.576;2023-03-23T08:19:52;7.78;;;1.40;;
44169;SDS011;29836;52.286;9.576;2023-03-23T08:22:17;2.72;;;1.30;;
44169;SDS011;29836;52.286;9.576;2023-03-23T08:24:43;2.70;;;1.13;;
44169;SDS011;29836;52.286;9.576;2023-03-23T08:27:08;2.20;;;1.20;;
44169;SDS011;29836;52.286;9.576;2023-03-23T08:29:34;1.13;;;0.75;;
44169;SDS011;29836;52.286;9.576;2023-03-23T08:32:00;4.15;;;1.27;;
44169;SDS011;29836;52.286;9.576;2023-03-23T08:34:27;3.45;;;1.13;;
44169;SDS011;29836;52.286;9.576;2023-03-23T08:36:53;2.75;;;1.20;;
44169;SDS011;29836;52.286;9.576;2023-03-23T08:39:20;3.00;;;1.40;;
44169;SDS011;29836;52.286;9.576;2023-03-23T08:41:47;2.30;;;0.88;;
44169;SDS011;29836;52.286;9.576;2023-03-23T08:44:13;1.65;;;0.90;;
44169;SDS011;29836;52.286;9.576;2023-03-23T08:46:39;1.35;;;0.90;;
44169;SDS011;29836;52.286;9.576;2023-03-23T08:49:05;2.97;;;1.00;;
44169;SDS011;29836;52.286;9.576;2023-03-23T08:51:31;3.67;;;1.13;;
44169;SDS011;29836;52.286;9.576;2023-03-23T08:53:56;3.67;;;1.10;;
44169;SDS011;29836;52.286;9.576;2023-03-23T08:56:22;5.65;;;1.30;;
44169;SDS011;29836;52.286;9.576;2023-03-23T08:58:47;3.50;;;1.20;;
44169;SDS011;29836;52.286;9.576;2023-03-23T09:01:13;4.63;;;1.30;;
44169;SDS011;29836;52.286;9.576;2023-03-23T09:03:40;2.80;;;1.40;;
44169;SDS011;29836;52.286;9.576;2023-03-23T09:06:06;2.67;;;1.35;;
44169;SDS011;29836;52.286;9.576;2023-03-23T09:08:33;4.38;;;1.40;;
44169;SDS011;29836;52.286;9.576;2023-03-23T09:11:04;1.70;;;1.02;;
44169;SDS011;29836;52.286;9.576;2023-03-23T09:13:32;5.70;;;1.20;;
44169;SDS011;29836;52.286;9.576;2023-03-23T09:15:59;3.35;;;1.40;;
44169;SDS011;29836;52.286;9.576;2023-03-23T09:18:25;3.17;;;1.02;;
44169;SDS011;29836;52.286;9.576;2023-03-23T09:20:51;5.30;;;1.38;;
44169;SDS011;29836;52.286;9.576;2023-03-23T09:23:17;3.92;;;1.50;;
44169;SDS011;29836;52.286;9.576;2023-03-23T09:25:43;1.88;;;1.02;;
44169;SDS011;29836;52.286;9.576;2023-03-23T09:28:09;4.05;;;1.15;;
44169;SDS011;29836;52.286;9.576;2023-03-23T09:30:35;2.83;;;1.10;;
44169;SDS011;29836;52.286;9.576;2023-03-23T09:33:03;5.30;;;1.30;;
44169;SDS011;29836;52.286;9.576;2023-03-23T09:35:30;2.15;;;0.88;;
44169;SDS011;29836;52.286;9.576;2023-03-23T09:38:00;2.67;;;1.25;;
44169;SDS011;29836;52.286;9.576;2023-03-23T09:40:28;4.07;;;1.25;;
44169;SDS011;29836;52.286;9.576;2023-03-23T09:45:50;4.68;;;1.40;;
44169;SDS011;29836;52.286;9.576;2023-03-23T09:48:38;2.70;;;1.17;;
44169;SDS011;29836;52.286;9.576;2023-03-23T09:54:21;5.55;;;1.75;;
44169;SDS011;29836;52.286;9.576;2023-03-23T09:56:48;3.83;;;1.33;;
44169;SDS011;29836;52.286;9.576;2023-03-23T09:59:20;6.82;;;1.25;;
44169;SDS011;29836;52.286;9.576;2023-03-23T10:01:57;4.68;;;1.60;;
44169;SDS011;29836;52.286;9.576;2023-03-23T10:07:13;1.85;;;1.20;;
44169;SDS011;29836;52.286;9.576;2023-03-23T10:09:41;3.13;;;1.40;;
44169;SDS011;29836;52.286;9.576;2023-03-23T10:15:01;6.22;;;1.58;;
44169;SDS011;29836;52.286;9.576;2023-03-23T10:17:50;2.80;;;1.27;;
44169;SDS011;29836;52.286;9.576;2023-03-23T10:20:33;2.55;;;1.38;;
44169;SDS011;29836;52.286;9.576;2023-03-23T10:28:37;6.03;;;1.30;;
44169;SDS011;29836;52.286;9.576;2023-03-23T10:31:15;3.97;;;1.38;;
44169;SDS011;29836;52.286;9.576;2023-03-23T10:33:47;4.03;;;1.38;;
44169;SDS011;29836;52.286;9.576;2023-03-23T10:36:19;5.72;;;1.27;;
44169;SDS011;29836;52.286;9.576;2023-03-23T10:39:00;4.22;;;1.42;;
44169;SDS011;29836;52.286;9.576;2023-03-23T10:41:39;6.50;;;1.45;;
44169;SDS011;29836;52.286;9.576;2023-03-23T10:44:13;7.72;;;1.38;;
44169;SDS011;29836;52.286;9.576;2023-03-23T10:46:45;3.78;;;1.63;;
44169;SDS011;29836;52.286;9.576;2023-03-23T10:49:15;2.95;;;1.40;;
44169;SDS011;29836;52.286;9.576;2023-03-23T10:51:57;4.55;;;1.20;;
44169;SDS011;29836;52.286;9.576;2023-03-23T10:54:35;4.93;;;1.65;;
44169;SDS011;29836;52.286;9.576;2023-03-23T10:57:12;4.40;;;1.20;;
44169;SDS011;29836;52.286;9.576;2023-03-23T10:59:58;4.80;;;0.85;;
44169;SDS011;29836;52.286;9.576;2023-03-23T11:02:43;1.38;;;1.08;;
44169;SDS011;29836;52.286;9.576;2023-03-23T11:05:23;3.00;;;1.23;;
44169;SDS011;29836;52.286;9.576;2023-03-23T11:07:53;3.50;;;1.30;;
44169;SDS011;29836;52.286;9.576;2023-03-23T11:10:22;3.67;;;1.45;;
44169;SDS011;29836;52.286;9.576;2023-03-23T11:12:53;3.53;;;1.27;;
44169;SDS011;29836;52.286;9.576;2023-03-23T11:17:55;2.88;;;1.38;;
44169;SDS011;29836;52.286;9.576;2023-03-23T11:20:23;3.00;;;1.25;;
44169;SDS011;29836;52.286;9.576;2023-03-23T11:22:51;2.70;;;1.20;;
44169;SDS011;29836;52.286;9.576;2023-03-23T11:25:17;4.63;;;1.45;;
44169;SDS011;29836;52.286;9.576;2023-03-23T11:27:42;5.50;;;1.40;;
44169;SDS011;29836;52.286;9.576;2023-03-23T11:30:09;6.85;;;1.60;;
44169;SDS011;29836;52.286;9.576;2023-03-23T11:32:49;4.70;;;1.40;;
44169;SDS011;29836;52.286;9.576;2023-03-23T11:35:19;4.32;;;1.30;;
44169;SDS011;29836;52.286;9.576;2023-03-23T11:37:48;3.45;;;1.35;;
44169;SDS011;29836;52.286;9.576;2023-03-23T11:40:21;5.28;;;1.45;;
44169;SDS011;29836;52.286;9.576;2023-03-23T11:42:55;3.72;;;1.40;;
44169;SDS011;29836;52.286;9.576;2023-03-23T11:51:00;6.82;;;1.70;;
44169;SDS011;29836;52.286;9.576;2023-03-23T11:56:31;2.95;;;1.23;;
44169;SDS011;29836;52.286;9.576;2023-03-23T11:59:00;3.38;;;1.25;;
44169;SDS011;29836;52.286;9.576;2023-03-23T12:17:42;1.50;;;0.90;;
44169;SDS011;29836;52.286;9.576;2023-03-23T12:23:12;3.72;;;0.98;;
44169;SDS011;29836;52.286;9.576;2023-03-23T12:26:08;2.92;;;0.80;;
44169;SDS011;29836;52.286;9.576;2023-03-23T12:36:34;3.15;;;0.85;;
44169;SDS011;29836;52.286;9.576;2023-03-23T12:42:07;2.20;;;0.63;;
44169;SDS011;29836;52.286;9.576;2023-03-23T12:44:51;2.72;;;0.93;;
44169;SDS011;29836;52.286;9.576;2023-03-23T12:47:36;0.88;;;0.80;;
44169;SDS011;29836;52.286;9.576;2023-03-23T12:50:05;0.60;;;0.60;;
44169;SDS011;29836;52.286;9.576;2023-03-23T12:52:45;1.52;;;0.68;;
44169;SDS011;29836;52.286;9.576;2023-03-23T12:55:29;1.35;;;0.70;;
44169;SDS011;29836;52.286;9.576;2023-03-23T12:58:08;1.02;;;0.60;;
44169;SDS011;29836;52.286;9.576;2023-03-23T13:14:11;2.10;;;0.50;;
44169;SDS011;29836;52.286;9.576;2023-03-23T13:19:59;1.17;;;0.60;;
44169;SDS011;29836;52.286;9.576;2023-03-23T13:22:53;0.60;;;0.60;;
44169;SDS011;29836;52.286;9.576;2023-03-23T13:25:35;0.57;;;0.55;;
44169;SDS011;29836;52.286;9.576;2023-03-23T13:28:23;0.98;;;0.57;;
44169;SDS011;29836;52.286;9.576;2023-03-23T13:31:00;0.90;;;0.55;;
44169;SDS011;29836;52.286;9.576;2023-03-23T13:33:29;0.57;;;0.57;;
44169;SDS011;29836;52.286;9.576;2023-03-23T13:35:56;4.68;;;0.65;;
44169;SDS011;29836;52.286;9.576;2023-03-23T13:38:30;1.15;;;0.50;;
44169;SDS011;29836;52.286;9.576;2023-03-23T13:40:55;1.33;;;0.70;;
44169;SDS011;29836;52.286;9.576;2023-03-23T13:43:32;3.45;;;0.75;;
44169;SDS011;29836;52.286;9.576;2023-03-23T13:46:08;0.55;;;0.55;;
44169;SDS011;29836;52.286;9.576;2023-03-23T13:48:44;1.83;;;0.40;;
44169;SDS011;29836;52.286;9.576;2023-03-23T13:54:13;1.92;;;0.50;;
44169;SDS011;29836;52.286;9.576;2023-03-23T13:56:58;0.98;;;0.55;;
44169;SDS011;29836;52.286;9.576;2023-03-23T13:59:29;1.63;;;0.52;;
44169;SDS011;29836;52.286;9.576;2023-03-23T14:05:21;1.38;;;0.73;;
44169;SDS011;29836;52.286;9.576;2023-03-23T14:07:52;1.25;;;0.80;;
44169;SDS011;29836;52.286;9.576;2023-03-23T14:10:25;1.25;;;0.63;;
44169;SDS011;29836;52.286;9.576;2023-03-23T14:13:06;1.27;;;0.68;;
44169;SDS011;29836;52.286;9.576;2023-03-23T14:18:25;1.23;;;0.60;;
44169;SDS011;29836;52.286;9.576;2023-03-23T14:20:55;1.20;;;0.80;;
44169;SDS011;29836;52.286;9.576;2023-03-23T14:23:22;1.23;;;0.88;;
44169;SDS011;29836;52.286;9.576;2023-03-23T14:25:54;1.00;;;0.80;;
44169;SDS011;29836;52.286;9.576;2023-03-23T14:28:21;4.00;;;0.90;;
44169;SDS011;29836;52.286;9.576;2023-03-23T14:30:48;2.78;;;0.90;;
44169;SDS011;29836;52.286;9.576;2023-03-23T14:33:18;0.85;;;0.70;;
44169;SDS011;29836;52.286;9.576;2023-03-23T14:35:45;4.00;;;1.08;;
44169;SDS011;29836;52.286;9.576;2023-03-23T14:38:17;1.45;;;0.80;;
44169;SDS011;29836;52.286;9.576;2023-03-23T14:40:45;2.08;;;0.95;;
44169;SDS011;29836;52.286;9.576;2023-03-23T14:43:14;5.35;;;1.30;;
44169;SDS011;29836;52.286;9.576;2023-03-23T14:45:41;1.92;;;0.88;;
44169;SDS011;29836;52.286;9.576;2023-03-23T14:48:07;3.20;;;0.80;;
44169;SDS011;29836;52.286;9.576;2023-03-23T14:50:42;2.00;;;0.95;;
44169;SDS011;29836;52.286;9.576;2023-03-23T14:53:22;3.13;;;0.98;;
44169;SDS011;29836;52.286;9.576;2023-03-23T14:55:51;1.13;;;0.70;;
44169;SDS011;29836;52.286;9.576;2023-03-23T14:58:19;2.20;;;0.57;;
44169;SDS011;29836;52.286;9.576;2023-03-23T15:01:08;2.40;;;0.90;;
44169;SDS011;29836;52.286;9.576;2023-03-23T15:03:36;1.65;;;0.60;;
44169;SDS011;29836;52.286;9.576;2023-03-23T15:06:07;0.80;;;0.65;;
44169;SDS011;29836;52.286;9.576;2023-03-23T15:08:40;1.40;;;0.80;;
44169;SDS011;29836;52.286;9.576;2023-03-23T15:11:27;1.30;;;0.63;;
44169;SDS011;29836;52.286;9.576;2023-03-23T15:13:57;2.08;;;0.80;;
44169;SDS011;29836;52.286;9.576;2023-03-23T15:16:34;1.15;;;0.70;;
44169;SDS011;29836;52.286;9.576;2023-03-23T15:19:02;1.77;;;0.80;;
44169;SDS011;29836;52.286;9.576;2023-03-23T15:21:49;0.95;;;0.80;;
44169;SDS011;29836;52.286;9.576;2023-03-23T15:27:03;9.18;;;3.13;;
44169;SDS011;29836;52.286;9.576;2023-03-23T15:29:46;3.55;;;1.70;;
44169;SDS011;29836;52.286;9.576;2023-03-23T15:32:13;6.93;;;2.92;;
44169;SDS011;29836;52.286;9.576;2023-03-23T15:34:44;4.57;;;2.10;;
44169;SDS011;29836;52.286;9.576;2023-03-23T15:37:29;2.17;;;1.30;;
44169;SDS011;29836;52.286;9.576;2023-03-23T15:39:56;3.03;;;1.15;;
44169;SDS011;29836;52.286;9.576;2023-03-23T15:42:30;2.42;;;1.23;;
44169;SDS011;29836;52.286;9.576;2023-03-23T15:45:22;2.80;;;1.65;;
44169;SDS011;29836;52.286;9.576;2023-03-23T15:47:51;3.03;;;1.73;;
44169;SDS011;29836;52.286;9.576;2023-03-23T15:50:18;5.30;;;2.00;;
44169;SDS011;29836;52.286;9.576;2023-03-23T15:52:50;6.10;;;2.55;;
44169;SDS011;29836;52.286;9.576;2023-03-23T15:57:47;3.97;;;1.75;;
44169;SDS011;29836;52.286;9.576;2023-03-23T16:00:14;5.35;;;1.83;;
44169;SDS011;29836;52.286;9.576;2023-03-23T16:02:41;3.97;;;2.22;;
44169;SDS011;29836;52.286;9.576;2023-03-23T16:05:08;5.53;;;2.13;;
44169;SDS011;29836;52.286;9.576;2023-03-23T16:07:36;3.20;;;1.42;;
44169;SDS011;29836;52.286;9.576;2023-03-23T16:10:02;3.60;;;1.92;;
44169;SDS011;29836;52.286;9.576;2023-03-23T16:12:29;5.45;;;1.80;;
44169;SDS011;29836;52.286;9.576;2023-03-23T16:14:54;5.18;;;2.50;;
44169;SDS011;29836;52.286;9.576;2023-03-23T16:17:20;3.30;;;1.65;;
44169;SDS011;29836;52.286;9.576;2023-03-23T16:19:45;3.72;;;1.63;;
44169;SDS011;29836;52.286;9.576;2023-03-23T16:22:11;4.82;;;1.77;;
44169;SDS011;29836;52.286;9.576;2023-03-23T16:24:36;3.20;;;1.23;;
44169;SDS011;29836;52.286;9.576;2023-03-23T16:27:02;3.70;;;1.73;;
44169;SDS011;29836;52.286;9.576;2023-03-23T16:29:28;4.97;;;1.63;;
44169;SDS011;29836;52.286;9.576;2023-03-23T16:31:53;6.28;;;1.90;;
44169;SDS011;29836;52.286;9.576;2023-03-23T16:34:19;5.90;;;1.33;;
44169;SDS011;29836;52.286;9.576;2023-03-23T16:36:45;3.05;;;1.30;;
44169;SDS011;29836;52.286;9.576;2023-03-23T16:39:10;7.50;;;3.28;;
44169;SDS011;29836;52.286;9.576;2023-03-23T16:41:36;6.55;;;1.98;;
44169;SDS011;29836;52.286;9.576;2023-03-23T16:44:02;3.03;;;1.38;;
44169;SDS011;29836;52.286;9.576;2023-03-23T16:46:28;2.90;;;1.50;;